createdAt,value
2022-10-23T00:00:05.276Z,2.8
2022-10-23T00:01:18.223Z,2.8
2022-10-23T00:02:04.387Z,2.1
2022-10-23T00:03:04.709Z,2.2
2022-10-23T00:04:11.513Z,2.4
2022-10-23T00:05:04.951Z,2.5
2022-10-23T00:06:04.604Z,2.7
2022-10-23T00:07:04.330Z,2.4
2022-10-23T00:08:04.120Z,1.9
2022-10-23T00:09:05.454Z,2.0
2022-10-23T00:10:05.373Z,2.3
2022-10-23T00:11:08.538Z,2.7
2022-10-23T00:12:04.952Z,2.0
2022-10-23T00:13:04.661Z,2.8
2022-10-23T00:14:05.648Z,2.9
2022-10-23T00:15:04.441Z,1.8
2022-10-23T00:16:04.297Z,2.0
2022-10-23T00:17:03.922Z,2.6
2022-10-23T00:18:04.648Z,2.1
2022-10-23T00:19:04.983Z,2.3
2022-10-23T00:20:05.412Z,2.5
2022-10-23T00:21:04.509Z,2.8
2022-10-23T00:22:03.862Z,2.3
2022-10-23T00:23:04.691Z,2.1
2022-10-23T00:24:04.917Z,2.7
2022-10-23T00:25:05.201Z,2.3
2022-10-23T00:26:04.218Z,2.6
2022-10-23T00:27:03.962Z,2.3
2022-10-23T00:28:04.632Z,2.4
2022-10-23T00:29:04.512Z,2.8
2022-10-23T00:30:04.868Z,2.7
2022-10-23T00:31:04.667Z,2.2
2022-10-23T00:32:04.024Z,2.1
2022-10-23T00:33:04.713Z,2.3
2022-10-23T00:34:04.594Z,2.2
2022-10-23T00:35:04.677Z,2.1
2022-10-23T00:36:05.414Z,2.4
2022-10-23T00:37:03.987Z,2.0
2022-10-23T00:38:04.689Z,2.7
2022-10-23T00:39:04.792Z,2.5
2022-10-23T00:40:04.960Z,2.3
2022-10-23T00:41:04.400Z,1.9
2022-10-23T00:42:04.055Z,2.5
2022-10-23T00:43:05.954Z,2.3
2022-10-23T00:44:15.273Z,2.4
2022-10-23T00:45:20.926Z,2.0
2022-10-23T00:46:04.321Z,2.2
2022-10-23T00:47:04.116Z,2.4
2022-10-23T00:48:04.087Z,2.7
2022-10-23T00:49:04.918Z,2.7
2022-10-23T00:50:04.706Z,2.4
2022-10-23T00:51:04.335Z,2.5
2022-10-23T00:52:06.424Z,2.1
2022-10-23T00:53:04.988Z,2.4
2022-10-23T00:54:23.989Z,2.4
2022-10-23T00:55:04.643Z,2.2
2022-10-23T00:56:04.535Z,1.7
2022-10-23T00:57:05.083Z,1.4
2022-10-23T00:58:04.207Z,2.0
2022-10-23T00:59:04.882Z,2.5
2022-10-23T01:00:04.865Z,2.0
2022-10-23T01:01:09.297Z,2.0
2022-10-23T01:02:04.343Z,1.4
2022-10-23T01:03:03.982Z,2.6
2022-10-23T01:04:05.726Z,2.3
2022-10-23T01:05:04.844Z,1.8
2022-10-23T01:06:10.338Z,2.5
2022-10-23T01:07:14.720Z,2.5
2022-10-23T01:08:11.234Z,2.3
2022-10-23T01:09:18.320Z,1.7
2022-10-23T01:10:09.396Z,1.9
2022-10-23T01:11:09.228Z,2.7
2022-10-23T01:12:14.729Z,2.1
2022-10-23T01:13:17.752Z,2.1
2022-10-23T01:14:09.592Z,2.2
2022-10-23T01:15:09.528Z,2.4
2022-10-23T01:16:06.416Z,2.5
2022-10-23T01:17:23.719Z,2.0
2022-10-23T01:18:11.061Z,2.7
2022-10-23T01:19:11.714Z,1.9
2022-10-23T01:20:09.476Z,2.2
2022-10-23T01:21:13.609Z,2.1
2022-10-23T01:22:20.828Z,1.8
2022-10-23T01:23:11.728Z,2.3
2022-10-23T01:24:20.736Z,2.3
2022-10-23T01:25:09.522Z,2.0
2022-10-23T01:26:15.222Z,2.3
2022-10-23T01:27:14.750Z,2.5
2022-10-23T01:28:06.408Z,2.2
2022-10-23T01:29:14.747Z,2.5
2022-10-23T01:30:13.104Z,2.5
2022-10-23T01:31:07.310Z,2.2
2022-10-23T01:32:09.142Z,2.0
2022-10-23T01:33:05.840Z,2.8
2022-10-23T01:34:09.669Z,2.4
2022-10-23T01:35:09.618Z,1.7
2022-10-23T01:36:06.098Z,2.9
2022-10-23T01:37:06.595Z,2.5
2022-10-23T01:38:09.003Z,2.1
2022-10-23T01:39:08.464Z,2.0
2022-10-23T01:40:08.534Z,1.8
2022-10-23T01:41:12.244Z,1.9
2022-10-23T01:42:06.209Z,2.5
2022-10-23T01:43:06.805Z,2.9
2022-10-23T01:44:11.727Z,2.4
2022-10-23T01:45:07.557Z,1.9
2022-10-23T01:46:07.802Z,2.5
2022-10-23T01:47:06.052Z,2.3
2022-10-23T01:48:05.814Z,2.9
2022-10-23T01:49:05.894Z,2.7
2022-10-23T01:50:04.449Z,2.2
2022-10-23T01:51:06.793Z,2.4
2022-10-23T01:52:05.834Z,2.3
2022-10-23T01:53:04.419Z,2.0
2022-10-23T01:54:06.314Z,2.5
2022-10-23T01:55:04.593Z,2.2
2022-10-23T01:56:06.231Z,2.6
2022-10-23T01:57:06.868Z,1.9
2022-10-23T01:58:05.029Z,2.4
2022-10-23T01:59:06.977Z,2.0
2022-10-23T02:00:06.524Z,1.7
2022-10-23T02:01:05.543Z,1.7
2022-10-23T02:02:05.677Z,2.6
2022-10-23T02:03:05.502Z,2.0
2022-10-23T02:04:06.625Z,2.0
2022-10-23T02:05:07.437Z,2.3
2022-10-23T02:06:04.827Z,2.4
2022-10-23T02:07:04.797Z,2.6
2022-10-23T02:08:04.363Z,2.6
2022-10-23T02:09:04.419Z,2.2
2022-10-23T02:10:04.941Z,2.7
2022-10-23T02:11:08.927Z,2.6
2022-10-23T02:12:17.754Z,2.7
2022-10-23T02:13:20.749Z,2.5
2022-10-23T02:14:17.738Z,2.4
2022-10-23T02:15:11.742Z,2.8
2022-10-23T02:16:09.643Z,2.5
2022-10-23T02:17:08.778Z,1.9
2022-10-23T02:18:07.491Z,2.5
2022-10-23T02:19:14.760Z,2.0
2022-10-23T02:20:26.741Z,2.0
2022-10-23T02:21:10.107Z,2.3
2022-10-23T02:22:12.329Z,2.5
2022-10-23T02:23:21.248Z,2.5
2022-10-23T02:24:10.713Z,2.4
2022-10-23T02:25:15.727Z,1.9
2022-10-23T02:26:08.791Z,2.6
2022-10-23T02:27:09.578Z,2.2
2022-10-23T02:28:08.297Z,2.5
2022-10-23T02:29:09.172Z,2.3
2022-10-23T02:30:05.816Z,2.0
2022-10-23T02:31:04.435Z,2.6
2022-10-23T02:32:06.583Z,1.7
2022-10-23T02:33:05.179Z,2.4
2022-10-23T02:34:04.521Z,2.9
2022-10-23T02:35:04.573Z,2.3
2022-10-23T02:36:04.167Z,2.2
2022-10-23T02:37:04.815Z,2.4
2022-10-23T02:38:09.503Z,2.7
2022-10-23T02:39:04.375Z,2.5
2022-10-23T02:40:04.625Z,2.6
2022-10-23T02:41:11.765Z,2.6
2022-10-23T02:42:09.589Z,2.1
2022-10-23T02:43:12.318Z,1.6
2022-10-23T02:44:14.730Z,2.6
2022-10-23T02:45:07.983Z,2.4
2022-10-23T02:46:17.756Z,2.1
2022-10-23T02:47:09.649Z,2.2
2022-10-23T02:48:12.324Z,2.2
2022-10-23T02:49:12.624Z,2.9
2022-10-23T02:50:09.095Z,2.2
2022-10-23T02:51:11.775Z,2.5
2022-10-23T02:52:08.738Z,2.3
2022-10-23T02:53:09.435Z,2.3
2022-10-23T02:54:12.744Z,2.5
2022-10-23T02:55:09.040Z,2.2
2022-10-23T02:56:08.870Z,2.0
2022-10-23T02:57:09.297Z,2.3
2022-10-23T02:58:12.262Z,2.3
2022-10-23T02:59:07.036Z,2.2
2022-10-23T03:00:08.688Z,2.3
2022-10-23T03:01:12.413Z,2.5
2022-10-23T03:02:14.810Z,2.0
2022-10-23T03:03:12.251Z,2.6
2022-10-23T03:04:05.006Z,2.5
2022-10-23T03:05:07.637Z,2.4
2022-10-23T03:06:04.177Z,2.3
2022-10-23T03:07:04.819Z,1.9
2022-10-23T03:08:06.839Z,1.8
2022-10-23T03:09:05.890Z,2.2
2022-10-23T03:10:04.576Z,2.4
2022-10-23T03:11:04.043Z,2.6
2022-10-23T03:12:04.786Z,2.6
2022-10-23T03:13:04.654Z,2.4
2022-10-23T03:14:04.292Z,2.2
2022-10-23T03:15:06.596Z,1.8
2022-10-23T03:16:03.969Z,2.4
2022-10-23T03:17:04.808Z,2.2
2022-10-23T03:18:04.549Z,2.1
2022-10-23T03:19:04.386Z,2.0
2022-10-23T03:20:04.916Z,2.2
2022-10-23T03:21:04.042Z,2.1
2022-10-23T03:22:04.697Z,2.6
2022-10-23T03:23:04.648Z,2.8
2022-10-23T03:24:04.557Z,1.8
2022-10-23T03:25:04.784Z,2.6
2022-10-23T03:26:04.554Z,2.6
2022-10-23T03:27:04.738Z,2.4
2022-10-23T03:28:04.547Z,2.4
2022-10-23T03:29:04.424Z,2.4
2022-10-23T03:30:05.332Z,1.6
2022-10-23T03:31:04.165Z,2.1
2022-10-23T03:32:04.738Z,2.2
2022-10-23T03:33:04.522Z,2.9
2022-10-23T03:34:07.516Z,2.2
2022-10-23T03:35:04.608Z,2.4
2022-10-23T03:36:04.325Z,2.9
2022-10-23T03:37:04.731Z,2.2
2022-10-23T03:38:04.577Z,2.2
2022-10-23T03:39:04.424Z,2.2
2022-10-23T03:40:04.642Z,2.3
2022-10-23T03:41:04.198Z,2.6
2022-10-23T03:42:04.812Z,2.2
2022-10-23T03:43:04.556Z,2.3
2022-10-23T03:45:04.553Z,2.7
2022-10-23T03:46:04.070Z,2.4
2022-10-23T03:47:04.904Z,2.9
2022-10-23T03:48:05.088Z,3.0
2022-10-23T03:49:04.453Z,2.4
2022-10-23T03:50:04.567Z,2.5
2022-10-23T03:51:04.763Z,2.0
2022-10-23T03:52:05.084Z,1.8
2022-10-23T03:53:04.546Z,2.4
2022-10-23T03:54:04.518Z,2.3
2022-10-23T03:55:04.738Z,2.3
2022-10-23T03:56:04.422Z,2.5
2022-10-23T03:57:04.870Z,2.0
2022-10-23T03:58:04.576Z,2.1
2022-10-23T03:59:04.443Z,2.5
2022-10-23T04:00:05.109Z,1.7
2022-10-23T04:01:04.167Z,2.1
2022-10-23T04:02:03.979Z,2.2
2022-10-23T04:03:04.549Z,2.2
2022-10-23T04:04:04.387Z,2.0
2022-10-23T04:05:04.696Z,1.5
2022-10-23T04:06:04.240Z,2.2
2022-10-23T04:07:04.759Z,1.9
2022-10-23T04:08:04.606Z,2.1
2022-10-23T04:09:04.595Z,2.2
2022-10-23T04:10:04.614Z,2.1
2022-10-23T04:11:04.182Z,2.2
2022-10-23T04:12:04.177Z,2.0
2022-10-23T04:13:04.613Z,2.4
2022-10-23T04:14:04.404Z,2.4
2022-10-23T04:15:04.437Z,2.3
2022-10-23T04:16:04.198Z,2.2
2022-10-23T04:17:03.934Z,2.4
2022-10-23T04:18:04.717Z,2.4
2022-10-23T04:19:04.494Z,3.1
2022-10-23T04:20:04.535Z,2.2
2022-10-23T04:21:04.424Z,2.6
2022-10-23T04:22:03.945Z,1.7
2022-10-23T04:23:04.654Z,1.6
2022-10-23T04:24:04.813Z,2.5
2022-10-23T04:25:04.337Z,1.5
2022-10-23T04:26:04.254Z,2.2
2022-10-23T04:27:03.917Z,1.9
2022-10-23T04:28:04.664Z,1.9
2022-10-23T04:29:04.478Z,2.0
2022-10-23T04:30:04.693Z,2.6
2022-10-23T04:31:04.227Z,2.6
2022-10-23T04:32:05.541Z,2.6
2022-10-23T04:33:04.649Z,2.4
2022-10-23T04:35:05.015Z,2.2
2022-10-23T04:36:04.446Z,2.1
2022-10-23T04:37:03.926Z,2.1
2022-10-23T04:38:04.690Z,2.0
2022-10-23T04:39:04.613Z,2.1
2022-10-23T04:40:04.662Z,2.2
2022-10-23T04:41:04.177Z,2.0
2022-10-23T04:42:03.962Z,1.9
2022-10-23T04:43:04.665Z,2.5
2022-10-23T04:44:04.469Z,1.8
2022-10-23T04:45:04.546Z,1.9
2022-10-23T04:46:04.224Z,2.1
2022-10-23T04:47:04.026Z,2.2
2022-10-23T04:48:04.776Z,1.4
2022-10-23T04:49:04.623Z,2.3
2022-10-23T04:50:04.726Z,1.9
2022-10-23T04:51:04.597Z,1.7
2022-10-23T04:52:04.041Z,2.0
2022-10-23T04:53:04.615Z,1.7
2022-10-23T04:54:04.569Z,1.8
2022-10-23T04:55:05.782Z,2.2
2022-10-23T04:56:04.452Z,2.0
2022-10-23T04:57:04.037Z,1.6
2022-10-23T04:58:04.662Z,2.2
2022-10-23T05:00:05.937Z,1.5
2022-10-23T05:01:04.322Z,1.7
2022-10-23T05:02:03.992Z,2.4
2022-10-23T05:03:04.661Z,1.8
2022-10-23T05:04:04.509Z,2.6
2022-10-23T05:05:05.094Z,2.3
2022-10-23T05:06:04.662Z,2.1
2022-10-23T05:07:04.023Z,2.7
2022-10-23T05:08:04.722Z,2.8
2022-10-23T05:09:04.539Z,2.3
2022-10-23T05:10:05.054Z,2.2
2022-10-23T05:11:04.400Z,2.7
2022-10-23T05:12:04.098Z,2.2
2022-10-23T05:13:03.974Z,2.7
2022-10-23T05:14:04.572Z,2.4
2022-10-23T05:15:05.897Z,2.1
2022-10-23T05:16:04.501Z,2.5
2022-10-23T05:17:10.362Z,1.8
2022-10-23T05:18:09.415Z,2.0
2022-10-23T05:19:05.515Z,2.6
2022-10-23T05:20:06.433Z,2.4
2022-10-23T05:21:08.417Z,2.3
2022-10-23T05:22:04.209Z,2.8
2022-10-23T05:23:05.869Z,1.7
2022-10-23T05:24:04.777Z,2.5
2022-10-23T05:25:04.521Z,2.8
2022-10-23T05:26:04.337Z,2.8
2022-10-23T05:27:04.035Z,2.8
2022-10-23T05:28:03.946Z,3.0
2022-10-23T05:29:04.618Z,2.2
2022-10-23T05:30:04.920Z,1.6
2022-10-23T05:31:05.112Z,2.8
2022-10-23T05:32:05.827Z,2.2
2022-10-23T05:33:04.139Z,2.2
2022-10-23T05:34:06.833Z,2.2
2022-10-23T05:35:08.653Z,2.5
2022-10-23T05:36:04.586Z,2.2
2022-10-23T05:37:05.294Z,2.2
2022-10-23T05:38:05.254Z,2.1
2022-10-23T05:39:04.631Z,2.1
2022-10-23T05:40:04.884Z,2.3
2022-10-23T05:41:04.479Z,1.9
2022-10-23T05:42:04.167Z,2.1
2022-10-23T05:43:03.906Z,1.9
2022-10-23T05:44:04.603Z,2.4
2022-10-23T05:45:04.764Z,1.9
2022-10-23T05:46:05.119Z,2.0
2022-10-23T05:47:04.135Z,2.0
2022-10-23T05:48:11.129Z,1.9
2022-10-23T05:49:04.616Z,1.2
2022-10-23T05:50:04.736Z,1.6
2022-10-23T05:51:05.722Z,2.1
2022-10-23T05:52:04.174Z,1.9
2022-10-23T05:53:03.932Z,2.0
2022-10-23T05:54:05.102Z,1.8
2022-10-23T05:55:04.749Z,2.0
2022-10-23T05:56:07.286Z,1.3
2022-10-23T05:57:04.189Z,1.4
2022-10-23T05:58:04.294Z,2.0
2022-10-23T05:59:04.689Z,2.5
2022-10-23T06:00:04.935Z,1.2
2022-10-23T06:01:08.644Z,1.5
2022-10-23T06:02:04.217Z,1.7
2022-10-23T06:03:03.934Z,1.9
2022-10-23T06:04:04.874Z,2.5
2022-10-23T06:05:04.594Z,2.8
2022-10-23T06:06:05.136Z,2.7
2022-10-23T06:07:04.203Z,2.3
2022-10-23T06:08:04.056Z,1.6
2022-10-23T06:09:04.661Z,2.3
2022-10-23T06:10:04.927Z,1.9
2022-10-23T06:11:09.174Z,1.7
2022-10-23T06:12:04.375Z,2.0
2022-10-23T06:13:03.953Z,2.0
2022-10-23T06:14:05.020Z,2.1
2022-10-23T06:15:04.967Z,1.9
2022-10-23T06:16:09.715Z,1.8
2022-10-23T06:17:04.145Z,1.5
2022-10-23T06:18:04.132Z,2.0
2022-10-23T06:19:04.754Z,2.1
2022-10-23T06:20:04.983Z,2.0
2022-10-23T06:21:04.488Z,2.4
2022-10-23T06:22:04.411Z,1.9
2022-10-23T06:23:04.381Z,1.2
2022-10-23T06:24:07.414Z,1.9
2022-10-23T06:25:04.977Z,2.0
2022-10-23T06:26:04.793Z,1.5
2022-10-23T06:27:04.272Z,2.5
2022-10-23T06:28:04.158Z,2.5
2022-10-23T06:29:04.702Z,2.2
2022-10-23T06:30:04.965Z,2.0
2022-10-23T06:31:05.238Z,1.5
2022-10-23T06:32:04.383Z,2.1
2022-10-23T06:33:05.906Z,1.7
2022-10-23T06:34:04.630Z,1.5
2022-10-23T06:35:04.935Z,1.5
2022-10-23T06:36:04.699Z,1.5
2022-10-23T06:37:05.164Z,2.4
2022-10-23T06:38:04.000Z,2.5
2022-10-23T06:39:04.826Z,2.2
2022-10-23T06:40:05.180Z,2.0
2022-10-23T06:41:05.140Z,2.2
2022-10-23T06:42:04.185Z,2.2
2022-10-23T06:43:04.558Z,2.5
2022-10-23T06:44:04.676Z,2.0
2022-10-23T06:45:06.598Z,2.1
2022-10-23T06:46:04.431Z,1.7
2022-10-23T06:47:04.240Z,2.4
2022-10-23T06:48:04.172Z,1.8
2022-10-23T06:49:04.680Z,2.0
2022-10-23T06:50:04.704Z,2.0
2022-10-23T06:51:05.431Z,2.2
2022-10-23T06:52:04.248Z,2.1
2022-10-23T06:53:04.496Z,1.8
2022-10-23T06:54:04.730Z,2.3
2022-10-23T06:55:04.858Z,1.6
2022-10-23T06:56:05.816Z,1.8
2022-10-23T06:57:04.657Z,1.9
2022-10-23T06:58:05.070Z,2.3
2022-10-23T06:59:04.429Z,1.5
2022-10-23T07:00:04.560Z,2.1
2022-10-23T07:01:05.183Z,2.1
2022-10-23T07:02:04.760Z,2.7
2022-10-23T07:03:04.902Z,2.6
2022-10-23T07:04:04.404Z,2.0
2022-10-23T07:05:04.456Z,2.6
2022-10-23T07:06:05.032Z,2.4
2022-10-23T07:07:04.596Z,1.9
2022-10-23T07:08:04.571Z,2.0
2022-10-23T07:09:04.287Z,2.1
2022-10-23T07:10:04.590Z,2.0
2022-10-23T07:11:04.974Z,2.5
2022-10-23T07:12:04.798Z,1.9
2022-10-23T07:13:04.458Z,2.1
2022-10-23T07:14:04.338Z,2.6
2022-10-23T07:15:04.614Z,2.1
2022-10-23T07:16:14.755Z,2.0
2022-10-23T07:17:04.724Z,1.9
2022-10-23T07:18:04.925Z,1.9
2022-10-23T07:19:04.367Z,1.9
2022-10-23T07:20:04.407Z,2.1
2022-10-23T07:21:04.082Z,1.5
2022-10-23T07:22:05.020Z,1.8
2022-10-23T07:23:04.512Z,3.5
2022-10-23T07:24:04.514Z,4.7
2022-10-23T07:25:04.518Z,4.7
2022-10-23T07:26:08.926Z,5.9
2022-10-23T07:27:05.128Z,5.9
2022-10-23T07:28:04.192Z,7.1
2022-10-23T07:29:04.784Z,6.9
2022-10-23T07:30:04.961Z,5.6
2022-10-23T07:31:04.820Z,6.0
2022-10-23T07:32:04.849Z,5.4
2022-10-23T07:33:04.456Z,6.4
2022-10-23T07:34:04.402Z,7.5
2022-10-23T07:35:04.762Z,7.6
2022-10-23T07:36:05.065Z,8.0
2022-10-23T07:37:04.660Z,7.8
2022-10-23T07:38:04.556Z,6.5
2022-10-23T07:39:04.342Z,6.6
2022-10-23T07:40:05.270Z,6.7
2022-10-23T07:41:06.816Z,7.8
2022-10-23T07:42:04.698Z,8.8
2022-10-23T07:43:04.484Z,6.3
2022-10-23T07:44:04.082Z,8.5
2022-10-23T07:45:04.433Z,8.1
2022-10-23T07:46:04.203Z,9.1
2022-10-23T07:47:04.337Z,10.3
2022-10-23T07:48:04.642Z,11.4
2022-10-23T07:49:04.280Z,10.9
2022-10-23T07:50:04.961Z,11.1
2022-10-23T07:51:05.946Z,10.2
2022-10-23T07:52:05.069Z,10.5
2022-10-23T07:53:04.578Z,10.9
2022-10-23T07:54:04.407Z,10.7
2022-10-23T07:55:04.553Z,10.8
2022-10-23T07:56:09.019Z,10.6
2022-10-23T07:57:04.548Z,12.1
2022-10-23T07:58:04.631Z,11.6
2022-10-23T07:59:04.748Z,11.8
2022-10-23T08:00:05.141Z,10.7
2022-10-23T08:01:08.944Z,10.4
2022-10-23T08:02:04.315Z,10.4
2022-10-23T08:03:04.044Z,11.0
2022-10-23T08:04:04.733Z,9.9
2022-10-23T08:05:04.149Z,10.4
2022-10-23T08:06:04.094Z,10.9
2022-10-23T08:07:04.283Z,11.1
2022-10-23T08:08:04.477Z,11.0
2022-10-23T08:09:06.601Z,12.2
2022-10-23T08:10:04.716Z,11.7
2022-10-23T08:11:05.174Z,11.5
2022-10-23T08:12:04.740Z,11.4
2022-10-23T08:13:04.409Z,8.9
2022-10-23T08:14:05.118Z,8.5
2022-10-23T08:15:05.067Z,7.6
2022-10-23T08:16:04.943Z,9.0
2022-10-23T08:17:04.737Z,8.6
2022-10-23T08:18:04.408Z,8.2
2022-10-23T08:19:05.110Z,10.3
2022-10-23T08:20:04.446Z,9.9
2022-10-23T08:21:04.056Z,10.2
2022-10-23T08:22:04.703Z,9.3
2022-10-23T08:23:04.049Z,9.7
2022-10-23T08:24:04.898Z,11.2
2022-10-23T08:25:04.885Z,11.6
2022-10-23T08:26:05.005Z,11.1
2022-10-23T08:27:04.292Z,10.8
2022-10-23T08:28:06.331Z,10.7
2022-10-23T08:29:04.260Z,9.6
2022-10-23T08:30:04.462Z,10.2
2022-10-23T08:31:07.894Z,10.3
2022-10-23T08:32:04.303Z,9.7
2022-10-23T08:33:04.470Z,10.9
2022-10-23T08:34:04.725Z,12.9
2022-10-23T08:35:04.820Z,11.0
2022-10-23T08:36:04.713Z,10.5
2022-10-23T08:37:04.312Z,10.1
2022-10-23T08:38:04.693Z,11.0
2022-10-23T08:39:04.966Z,9.8
2022-10-23T08:40:04.383Z,10.2
2022-10-23T08:41:05.325Z,10.8
2022-10-23T08:42:04.274Z,9.9
2022-10-23T08:43:11.790Z,8.3
2022-10-23T08:44:09.131Z,9.3
2022-10-23T08:45:06.786Z,10.2
2022-10-23T08:46:09.275Z,10.0
2022-10-23T08:47:09.662Z,9.0
2022-10-23T08:48:08.911Z,9.6
2022-10-23T08:49:17.753Z,10.4
2022-10-23T08:50:13.637Z,9.5
2022-10-23T08:51:16.879Z,9.2
2022-10-23T08:52:14.011Z,9.9
2022-10-23T08:53:09.347Z,9.0
2022-10-23T08:54:09.500Z,9.0
2022-10-23T08:55:08.842Z,8.9
2022-10-23T08:56:19.704Z,8.5
2022-10-23T08:57:09.408Z,8.7
2022-10-23T08:58:11.676Z,8.1
2022-10-23T08:59:14.557Z,8.5
2022-10-23T09:00:06.518Z,8.4
2022-10-23T09:01:22.339Z,8.8
2022-10-23T09:02:09.605Z,9.8
2022-10-23T09:03:04.879Z,8.2
2022-10-23T09:04:04.688Z,9.5
2022-10-23T09:05:09.377Z,8.8
2022-10-23T09:06:17.772Z,8.1
2022-10-23T09:07:11.758Z,8.5
2022-10-23T09:08:08.790Z,8.9
2022-10-23T09:09:27.263Z,8.8
2022-10-23T09:10:22.195Z,8.9
2022-10-23T09:11:12.270Z,8.1
2022-10-23T09:12:08.060Z,7.9
2022-10-23T09:13:22.258Z,7.7
2022-10-23T09:14:22.209Z,8.0
2022-10-23T09:15:22.364Z,8.7
2022-10-23T09:16:09.103Z,8.8
2022-10-23T09:17:22.731Z,8.8
2022-10-23T09:18:09.636Z,8.5
2022-10-23T09:19:14.783Z,8.3
2022-10-23T09:20:18.099Z,9.3
2022-10-23T09:21:07.789Z,8.1
2022-10-23T09:22:04.652Z,8.5
2022-10-23T09:23:11.777Z,7.8
2022-10-23T09:24:04.736Z,7.3
2022-10-23T09:25:08.843Z,7.8
2022-10-23T09:26:09.503Z,8.5
2022-10-23T09:28:05.713Z,6.8
2022-10-23T09:29:11.838Z,6.9
2022-10-23T09:30:04.386Z,7.5
2022-10-23T09:31:05.695Z,7.7
2022-10-23T09:32:05.387Z,8.8
2022-10-23T09:33:17.779Z,7.7
2022-10-23T09:34:06.475Z,7.6
2022-10-23T09:35:05.087Z,7.3
2022-10-23T09:36:09.549Z,7.3
2022-10-23T09:37:09.299Z,7.9
2022-10-23T09:38:04.247Z,7.3
2022-10-23T09:39:04.130Z,6.8
2022-10-23T09:40:22.291Z,7.8
2022-10-23T09:41:15.280Z,7.8
2022-10-23T09:42:23.373Z,7.6
2022-10-23T09:43:14.422Z,7.3
2022-10-23T09:44:11.805Z,8.2
2022-10-23T09:45:09.231Z,8.5
2022-10-23T09:46:05.417Z,7.6
2022-10-23T09:47:09.859Z,7.5
2022-10-23T09:48:09.210Z,7.7
2022-10-23T09:49:05.801Z,7.4
2022-10-23T09:50:08.906Z,8.0
2022-10-23T09:51:20.127Z,8.2
2022-10-23T09:52:09.312Z,7.5
2022-10-23T09:53:04.668Z,6.9
2022-10-23T09:54:04.493Z,6.3
2022-10-23T09:55:20.302Z,7.1
2022-10-23T09:56:05.976Z,6.6
2022-10-23T09:57:08.886Z,7.2
2022-10-23T09:58:04.896Z,6.3
2022-10-23T09:59:14.789Z,6.9
2022-10-23T10:00:06.670Z,6.8
2022-10-23T10:01:05.081Z,8.0
2022-10-23T10:02:09.525Z,6.7
2022-10-23T10:03:05.207Z,7.3
2022-10-23T10:04:04.162Z,8.0
2022-10-23T10:05:22.251Z,8.0
2022-10-23T10:06:04.345Z,7.1
2022-10-23T10:07:05.533Z,7.7
2022-10-23T10:08:11.318Z,8.6
2022-10-23T10:09:11.139Z,7.6
2022-10-23T10:10:09.274Z,7.6
2022-10-23T10:11:09.097Z,7.4
2022-10-23T10:12:08.990Z,9.2
2022-10-23T10:13:14.234Z,9.1
2022-10-23T10:14:21.323Z,8.1
2022-10-23T10:15:27.363Z,7.6
2022-10-23T10:16:18.304Z,7.3
2022-10-23T10:17:18.347Z,7.1
2022-10-23T10:18:11.816Z,7.2
2022-10-23T10:19:14.796Z,7.6
2022-10-23T10:20:22.280Z,8.0
2022-10-23T10:21:09.524Z,7.5
2022-10-23T10:22:24.348Z,7.3
2022-10-23T10:23:11.822Z,7.0
2022-10-23T10:24:09.421Z,7.3
2022-10-23T10:25:26.817Z,7.2
2022-10-23T10:26:22.269Z,6.6
2022-10-23T10:27:11.869Z,6.7
2022-10-23T10:28:09.206Z,6.7
2022-10-23T10:29:08.940Z,6.9
2022-10-23T10:30:08.816Z,7.8
2022-10-23T10:31:18.292Z,6.9
2022-10-23T10:32:22.741Z,6.9
2022-10-23T10:33:14.808Z,7.0
2022-10-23T10:34:13.577Z,6.5
2022-10-23T10:35:20.808Z,6.8
2022-10-23T10:36:09.128Z,7.2
2022-10-23T10:37:08.942Z,6.4
2022-10-23T10:38:09.658Z,6.6
2022-10-23T10:39:09.380Z,6.8
2022-10-23T10:40:11.825Z,7.3
2022-10-23T10:41:09.450Z,6.7
2022-10-23T10:42:08.864Z,6.3
2022-10-23T10:43:11.652Z,7.0
2022-10-23T10:44:09.347Z,7.1
2022-10-23T10:45:09.200Z,6.6
2022-10-23T10:46:09.469Z,6.5
2022-10-23T10:47:16.005Z,6.9
2022-10-23T10:48:14.865Z,6.6
2022-10-23T10:49:11.797Z,6.8
2022-10-23T10:50:09.567Z,5.4
2022-10-23T10:51:10.996Z,6.7
2022-10-23T10:52:14.804Z,6.6
2022-10-23T10:53:09.099Z,7.1
2022-10-23T10:54:22.222Z,7.2
2022-10-23T10:55:15.397Z,6.1
2022-10-23T10:56:07.632Z,6.2
2022-10-23T10:57:09.667Z,6.4
2022-10-23T10:58:09.575Z,6.4
2022-10-23T10:59:09.414Z,6.5
2022-10-23T11:00:09.233Z,6.8
2022-10-23T11:01:09.102Z,6.5
2022-10-23T11:02:21.810Z,6.7
2022-10-23T11:03:24.329Z,7.0
2022-10-23T11:04:14.841Z,5.9
2022-10-23T11:05:09.077Z,7.4
2022-10-23T11:06:05.208Z,5.8
2022-10-23T11:07:06.909Z,6.3
2022-10-23T11:08:09.463Z,6.4
2022-10-23T11:09:20.229Z,6.6
2022-10-23T11:10:09.229Z,4.9
2022-10-23T11:11:08.944Z,6.7
2022-10-23T11:12:04.913Z,6.4
2022-10-23T11:13:04.562Z,6.1
2022-10-23T11:14:04.375Z,6.3
2022-10-23T11:15:09.282Z,6.2
2022-10-23T11:16:16.598Z,6.0
2022-10-23T11:17:09.773Z,5.5
2022-10-23T11:18:06.139Z,6.0
2022-10-23T11:19:26.309Z,6.3
2022-10-23T11:20:18.309Z,7.0
2022-10-23T11:21:21.308Z,6.2
2022-10-23T11:22:11.807Z,5.6
2022-10-23T11:23:14.877Z,6.2
2022-10-23T11:25:09.092Z,6.7
2022-10-23T11:26:13.399Z,6.4
2022-10-23T11:27:12.328Z,6.8
2022-10-23T11:28:10.731Z,6.5
2022-10-23T11:29:22.757Z,6.1
2022-10-23T11:30:22.862Z,6.1
2022-10-23T11:31:12.075Z,6.3
2022-10-23T11:32:09.536Z,7.7
2022-10-23T11:33:11.889Z,6.6
2022-10-23T11:34:20.826Z,6.8
2022-10-23T11:35:08.940Z,6.2
2022-10-23T11:36:08.858Z,6.4
2022-10-23T11:37:04.753Z,6.3
2022-10-23T11:38:15.338Z,6.3
2022-10-23T11:39:11.827Z,6.2
2022-10-23T11:40:11.838Z,6.2
2022-10-23T11:41:06.064Z,5.5
2022-10-23T11:42:09.525Z,6.3
2022-10-23T11:43:04.431Z,7.4
2022-10-23T11:44:09.646Z,6.4
2022-10-23T11:45:09.496Z,6.6
2022-10-23T11:46:17.860Z,6.1
2022-10-23T11:47:09.484Z,5.6
2022-10-23T11:48:05.770Z,6.8
2022-10-23T11:49:05.336Z,6.5
2022-10-23T11:50:11.989Z,6.0
2022-10-23T11:51:05.243Z,6.7
2022-10-23T11:52:04.808Z,6.5
2022-10-23T11:53:14.026Z,6.2
2022-10-23T11:54:05.915Z,6.1
2022-10-23T11:55:09.493Z,6.1
2022-10-23T11:56:14.903Z,6.3
2022-10-23T11:57:12.320Z,6.2
2022-10-23T11:58:10.265Z,6.6
2022-10-23T11:59:23.885Z,6.4
2022-10-23T12:00:08.996Z,5.7
2022-10-23T12:01:06.119Z,6.0
2022-10-23T12:02:22.840Z,6.2
2022-10-23T12:03:04.501Z,5.9
2022-10-23T12:04:18.343Z,6.6
2022-10-23T12:05:22.782Z,5.3
2022-10-23T12:06:04.767Z,5.5
2022-10-23T12:07:09.108Z,5.5
2022-10-23T12:08:05.984Z,5.6
2022-10-23T12:09:06.817Z,6.1
2022-10-23T12:10:12.360Z,5.6
2022-10-23T12:11:04.500Z,5.5
2022-10-23T12:12:11.903Z,6.6
2022-10-23T12:13:04.807Z,6.0
2022-10-23T12:14:04.723Z,6.4
2022-10-23T12:15:15.349Z,5.8
2022-10-23T12:16:05.337Z,5.2
2022-10-23T12:17:26.864Z,5.1
2022-10-23T12:18:11.352Z,5.4
2022-10-23T12:19:15.341Z,5.9
2022-10-23T12:20:12.344Z,6.1
2022-10-23T12:21:04.418Z,5.2
2022-10-23T12:22:08.583Z,5.6
2022-10-23T12:23:23.834Z,5.6
2022-10-23T12:24:17.848Z,5.5
2022-10-23T12:25:16.911Z,6.1
2022-10-23T12:26:20.844Z,5.2
2022-10-23T12:27:20.889Z,6.3
2022-10-23T12:28:23.358Z,6.0
2022-10-23T12:29:09.458Z,5.7
2022-10-23T12:30:14.899Z,6.2
2022-10-23T12:31:22.274Z,4.8
2022-10-23T12:32:11.870Z,6.1
2022-10-23T12:33:18.368Z,5.7
2022-10-23T12:34:11.880Z,6.3
2022-10-23T12:35:12.359Z,5.6
2022-10-23T12:36:09.539Z,6.0
2022-10-23T12:37:09.413Z,6.0
2022-10-23T12:38:11.913Z,5.4
2022-10-23T12:39:09.019Z,6.2
2022-10-23T12:40:07.833Z,5.9
2022-10-23T12:41:13.228Z,5.2
2022-10-23T12:42:05.415Z,5.6
2022-10-23T12:43:09.081Z,5.1
2022-10-23T12:44:04.585Z,5.8
2022-10-23T12:45:09.654Z,5.4
2022-10-23T12:46:11.982Z,5.8
2022-10-23T12:47:04.486Z,5.2
2022-10-23T12:48:04.611Z,5.7
2022-10-23T12:49:08.955Z,4.9
2022-10-23T12:50:09.643Z,5.7
2022-10-23T12:51:04.636Z,5.1
2022-10-23T12:52:05.544Z,4.7
2022-10-23T12:53:05.441Z,5.2
2022-10-23T12:54:09.016Z,4.7
2022-10-23T12:55:11.328Z,6.1
2022-10-23T12:56:04.807Z,5.8
2022-10-23T12:57:23.428Z,5.3
2022-10-23T12:58:04.176Z,5.8
2022-10-23T12:59:10.085Z,6.0
2022-10-23T13:00:08.372Z,5.4
2022-10-23T13:01:04.942Z,5.2
2022-10-23T13:02:13.672Z,5.8
2022-10-23T13:03:04.545Z,5.9
2022-10-23T13:04:14.978Z,5.0
2022-10-23T13:05:07.976Z,4.7
2022-10-23T13:06:04.078Z,4.8
2022-10-23T13:07:04.757Z,5.7
2022-10-23T13:08:04.460Z,5.0
2022-10-23T13:09:05.190Z,4.9
2022-10-23T13:10:04.723Z,5.9
2022-10-23T13:11:04.307Z,5.4
2022-10-23T13:12:05.563Z,5.1
2022-10-23T13:13:05.767Z,5.4
2022-10-23T13:14:09.199Z,5.4
2022-10-23T13:15:11.938Z,4.9
2022-10-23T13:16:08.842Z,5.8
2022-10-23T13:17:05.659Z,5.1
2022-10-23T13:18:04.754Z,5.8
2022-10-23T13:19:04.297Z,4.8
2022-10-23T13:20:08.035Z,4.3
2022-10-23T13:21:03.933Z,5.5
2022-10-23T13:22:09.594Z,4.8
2022-10-23T13:23:11.882Z,5.5
2022-10-23T13:24:04.516Z,5.2
2022-10-23T13:25:09.063Z,4.6
2022-10-23T13:26:09.295Z,4.6
2022-10-23T13:27:09.065Z,5.2
2022-10-23T13:28:11.367Z,4.5
2022-10-23T13:29:09.771Z,4.0
2022-10-23T13:30:10.783Z,5.4
2022-10-23T13:31:11.914Z,4.8
2022-10-23T13:32:10.341Z,4.6
2022-10-23T13:33:13.497Z,4.8
2022-10-23T13:34:06.368Z,5.6
2022-10-23T13:35:21.515Z,5.2
2022-10-23T13:36:06.245Z,4.2
2022-10-23T13:37:23.945Z,5.3
2022-10-23T13:38:09.952Z,5.6
2022-10-23T13:39:09.104Z,5.0
2022-10-23T13:40:05.399Z,5.1
2022-10-23T13:41:05.637Z,5.3
2022-10-23T13:42:12.182Z,5.3
2022-10-23T13:43:09.231Z,4.4
2022-10-23T13:44:04.249Z,4.9
2022-10-23T13:45:08.926Z,4.6
2022-10-23T13:46:04.963Z,4.3
2022-10-23T13:47:04.844Z,3.9
2022-10-23T13:48:09.277Z,5.1
2022-10-23T13:49:04.308Z,4.7